Time;durP1;ratioP1;P1;durP2;ratioP2;P2;SDS_P1;SDS_P2;PMS_P1;PMS_P2;Temp;Humidity;BMP_temperature;BMP_pressure;BME280_temperature;BME280_humidity;BME280_pressure;Samples;Min_cycle;Max_cycle;Signal;HPM_P1;HPM_P2
2022/11/05 00:09:27;;;;;;;130.80;73.90;;;;;;;11.57;84.73;99218.28;5095721;28;20179;-67
2022/11/05 00:17:07;;;;;;;111.33;60.43;;;;;;;11.74;84.05;99208.81;5098434;28;20282;-68
2022/11/05 00:19:35;;;;;;;96.70;54.77;;;;;;;11.78;83.91;99214.53;5094901;28;20274;-67
2022/11/05 00:27:32;;;;;;;88.47;50.33;;;;;;;11.72;84.61;99194.09;5094952;28;20667;-68
2022/11/05 00:29:59;;;;;;;74.67;46.40;;;;;;;11.81;84.10;99204.31;5094748;28;20197;-68
2022/11/05 00:32:26;;;;;;;78.73;46.30;;;;;;;11.90;83.89;99207.53;5094585;28;20192;-68
2022/11/05 00:34:54;;;;;;;84.80;46.57;;;;;;;11.87;83.95;99211.44;5094663;28;20341;-67
2022/11/05 00:37:20;;;;;;;76.47;44.80;;;;;;;11.90;83.85;99207.53;5094055;28;20219;-68
2022/11/05 00:39:47;;;;;;;77.33;44.80;;;;;;;11.92;83.62;99203.63;5094129;28;20705;-68
2022/11/05 00:45:01;;;;;;;73.97;43.37;;;;;;;11.95;84.29;99205.03;5094474;28;20185;-68
2022/11/05 00:50:13;;;;;;;71.73;42.80;;;;;;;11.86;83.84;99206.31;5093574;28;20192;-68
2022/11/05 00:55:32;;;;;;;70.77;42.20;;;;;;;11.70;85.03;99202.28;5087267;28;20193;-68
2022/11/05 00:57:59;;;;;;;65.13;41.10;;;;;;;11.74;84.63;99202.69;5093694;28;20569;-68
2022/11/05 01:00:29;;;;;;;66.20;38.40;;;;;;;11.80;84.32;99196.53;5093773;28;20201;-68
2022/11/05 01:02:58;;;;;;;61.83;37.73;;;;;;;11.77;84.06;99205.75;5094172;28;20557;-68
2022/11/05 01:05:27;;;;;;;68.33;38.40;;;;;;;11.73;84.20;99195.72;5094042;28;20198;-68
2022/11/05 01:07:54;;;;;;;58.03;38.00;;;;;;;11.64;84.93;99191.69;5094275;28;20194;-68
2022/11/05 01:10:21;;;;;;;57.03;37.87;;;;;;;11.64;84.80;99191.69;5094046;28;20285;-68
2022/11/05 01:12:48;;;;;;;54.97;36.63;;;;;;;11.71;84.34;99192.47;5098779;28;20288;-68
2022/11/05 01:15:16;;;;;;;62.17;36.60;;;;;;;11.69;84.63;99192.69;5113662;28;20195;-68
2022/11/05 01:17:43;;;;;;;61.70;35.23;;;;;;;11.68;84.80;99185.72;5094271;28;20315;-67
2022/11/05 01:20:11;;;;;;;54.40;36.43;;;;;;;11.67;84.53;99186.75;5093345;28;20197;-67
2022/11/05 01:22:39;;;;;;;85.43;38.13;;;;;;;11.62;84.32;99183.91;5093854;28;20202;-67
2022/11/05 01:25:07;;;;;;;108.37;41.77;;;;;;;11.52;85.07;99180.84;5093663;28;20227;-68
2022/11/05 01:27:35;;;;;;;129.63;43.30;;;;;;;11.48;84.79;99176.97;5093572;28;20284;-68
2022/11/05 01:30:02;;;;;;;97.30;41.37;;;;;;;11.50;85.06;99180.22;5093467;28;20279;-68
2022/11/05 01:32:29;;;;;;;86.57;41.50;;;;;;;11.34;84.67;99147.94;5093376;28;20196;-68
2022/11/05 01:34:56;;;;;;;78.33;39.60;;;;;;;11.46;85.19;99165.72;5093686;28;20192;-67
2022/11/05 01:37:22;;;;;;;74.90;39.90;;;;;;;11.46;85.37;99157.72;5093014;28;20194;-68
2022/11/05 01:39:50;;;;;;;71.83;40.77;;;;;;;11.50;84.63;99158.13;5092912;28;20764;-68
2022/11/05 01:42:20;;;;;;;64.77;41.97;;;;;;;11.54;84.26;99154.84;5092489;28;20286;-68
2022/11/05 01:44:56;;;;;;;70.67;43.07;;;;;;;11.38;83.16;99149.97;5093084;28;20197;-68
2022/11/05 01:47:32;;;;;;;68.17;42.80;;;;;;;11.33;83.15;99154.28;5094182;28;20196;-68
2022/11/05 01:50:02;;;;;;;74.23;42.93;;;;;;;11.19;84.50;99150.84;5093618;28;20210;-68
2022/11/05 01:52:32;;;;;;;78.67;41.63;;;;;;;11.16;84.87;99151.28;5092839;28;20182;-69
2022/11/05 01:55:01;;;;;;;68.97;42.57;;;;;;;11.21;84.43;99143.50;5092573;28;20542;-68
2022/11/05 01:57:29;;;;;;;71.03;42.37;;;;;;;11.24;83.48;99150.22;5092291;28;20193;-69
2022/11/05 01:59:59;;;;;;;74.13;43.23;;;;;;;11.17;83.38;99144.09;5092320;28;20197;-68
2022/11/05 02:02:26;;;;;;;70.07;42.70;;;;;;;11.20;84.00;99143.69;5092164;28;20640;-69
2022/11/05 02:04:58;;;;;;;69.27;42.43;;;;;;;11.22;83.70;99150.44;5092299;28;20250;-68
2022/11/05 02:07:26;;;;;;;68.03;41.57;;;;;;;11.23;83.26;99145.94;5092838;28;20184;-68
2022/11/05 02:09:59;;;;;;;77.43;43.30;;;;;;;11.25;83.27;99138.56;5093366;28;20217;-68
2022/11/05 02:12:28;;;;;;;73.83;42.90;;;;;;;11.26;83.27;99135.69;5094166;28;20189;-68
2022/11/05 02:14:56;;;;;;;67.93;41.17;;;;;;;11.18;83.26;99127.94;5112762;28;20228;-68
2022/11/05 02:17:36;;;;;;;65.87;41.83;;;;;;;11.09;83.75;99134.53;5094876;28;20220;-68
2022/11/05 02:20:31;;;;;;;63.73;40.80;;;;;;;11.14;83.97;99128.59;5092854;28;20191;-68
2022/11/05 02:23:28;;;;;;;71.13;38.47;;;;;;;11.16;83.34;99135.34;5090283;28;20254;-69
2022/11/05 02:26:20;;;;;;;63.20;39.67;;;;;;;11.16;83.09;99135.34;5092545;28;20226;-68
2022/11/05 02:29:20;;;;;;;68.80;39.57;;;;;;;11.14;83.43;99126.72;5092477;28;20365;-68
2022/11/05 02:31:54;;;;;;;60.83;38.43;;;;;;;11.06;84.05;99124.28;5066095;28;20193;-68
2022/11/05 02:34:27;;;;;;;70.83;37.37;;;;;;;11.09;83.52;99131.84;5092533;28;20262;-68
2022/11/05 02:37:03;;;;;;;64.47;36.37;;;;;;;11.03;83.55;99124.72;5092289;28;20185;-68
2022/11/05 02:39:41;;;;;;;56.00;37.47;;;;;;;10.93;84.92;99124.31;5092300;28;20660;-68
2022/11/05 02:42:15;;;;;;;56.40;36.13;;;;;;;10.93;84.91;99134.94;5092174;28;20661;-69
2022/11/05 02:44:52;;;;;;;64.20;36.60;;;;;;;10.94;85.01;99125.94;5092640;28;20184;-68
2022/11/05 02:47:26;;;;;;;63.00;35.10;;;;;;;10.91;84.34;99127.19;5092742;28;20217;-67
2022/11/05 02:50:03;;;;;;;58.50;36.23;;;;;;;10.92;84.91;99128.00;5092016;28;20210;-67
2022/11/05 02:52:37;;;;;;;53.50;36.50;;;;;;;10.83;85.23;99127.41;5092037;28;20651;-69
2022/11/05 02:55:12;;;;;;;57.90;36.50;;;;;;;10.84;85.66;99125.56;5091835;28;20178;-68
2022/11/05 02:57:44;;;;;;;56.87;35.63;;;;;;;10.90;84.98;99127.38;5091485;28;20182;-69
2022/11/05 03:00:39;;;;;;;62.63;37.47;;;;;;;10.94;84.98;99131.28;5090484;28;20291;-68
2022/11/05 03:03:10;;;;;;;64.03;34.90;;;;;;;10.93;84.27;99134.94;5090816;28;20641;-68
2022/11/05 03:05:44;;;;;;;61.83;35.53;;;;;;;10.91;84.96;99142.34;5090364;28;20189;-68
2022/11/05 03:08:22;;;;;;;64.07;36.13;;;;;;;10.90;84.55;99138.84;5092429;28;20180;-68
2022/11/05 03:10:58;;;;;;;64.97;35.40;;;;;;;10.90;84.70;99156.63;5092046;28;20243;-68
2022/11/05 03:13:32;;;;;;;67.43;36.97;;;;;;;10.91;85.08;99152.97;5101442;28;20190;-68
2022/11/05 03:16:02;;;;;;;59.60;35.30;;;;;;;10.92;84.80;99149.28;5105436;28;20224;-68
2022/11/05 03:18:41;;;;;;;67.03;38.20;;;;;;;10.93;84.92;99141.09;5092026;28;20320;-68
2022/11/05 03:21:17;;;;;;;59.33;35.47;;;;;;;10.94;84.70;99136.59;5091326;28;20233;-69
2022/11/05 03:23:49;;;;;;;62.43;36.30;;;;;;;10.89;84.01;99141.72;5091360;28;20620;-68
2022/11/05 03:26:22;;;;;;;59.37;33.90;;;;;;;10.91;84.27;99139.69;5091720;28;20191;-68
2022/11/05 03:28:55;;;;;;;60.30;35.60;;;;;;;10.92;84.49;99141.31;5091919;28;20180;-68
2022/11/05 03:31:24;;;;;;;55.60;35.30;;;;;;;10.84;84.44;99138.84;5091719;28;20238;-68
2022/11/05 03:33:55;;;;;;;58.40;35.30;;;;;;;10.81;84.29;99137.44;5091270;28;20549;-68
2022/11/05 03:36:26;;;;;;;52.87;34.90;;;;;;;10.80;84.79;99140.28;5091598;28;20187;-69
2022/11/05 03:38:56;;;;;;;65.07;34.93;;;;;;;10.79;84.41;99149.28;5091019;28;20184;-69
2022/11/05 03:41:25;;;;;;;52.47;33.03;;;;;;;10.77;85.36;99143.34;5091284;28;20228;-68
2022/11/05 03:43:57;;;;;;;54.70;33.80;;;;;;;10.68;85.07;99139.28;5091321;28;20333;-68
2022/11/05 03:46:29;;;;;;;58.47;34.80;;;;;;;10.67;85.36;99135.78;5091646;28;20244;-69
2022/11/05 03:49:02;;;;;;;51.87;32.83;;;;;;;10.66;85.97;99133.38;5111734;28;20188;-68
2022/11/05 03:51:35;;;;;;;49.73;32.17;;;;;;;10.53;86.37;99112.09;5111692;28;20185;-68
2022/11/05 03:54:04;;;;;;;52.07;33.00;;;;;;;10.66;86.30;99133.38;5112133;28;20186;-68
2022/11/05 03:56:37;;;;;;;51.77;31.97;;;;;;;10.68;85.82;99126.00;5111951;28;20195;-67
2022/11/05 03:59:06;;;;;;;58.13;33.40;;;;;;;10.71;84.92;99136.22;5111578;28;20922;-67
2022/11/05 04:01:34;;;;;;;56.73;32.83;;;;;;;10.71;84.96;99139.66;5112110;28;20252;-68
2022/11/05 04:04:03;;;;;;;53.47;33.53;;;;;;;10.70;85.36;99134.56;5111572;28;20196;-68
2022/11/05 04:14:41;;;;;;;56.53;34.83;;;;;;;10.05;86.34;99135.34;5091194;28;20187;-68
2022/11/05 04:17:08;;;;;;;57.30;37.00;;;;;;;10.05;85.79;99139.84;5107569;28;20315;-68
2022/11/05 04:25:07;;;;;;;62.97;35.27;;;;;;;9.79;87.89;99140.56;5113424;28;20182;-68
2022/11/05 04:27:34;;;;;;;63.83;36.43;;;;;;;9.75;88.70;99133.19;5114623;28;20220;-68
2022/11/05 04:30:18;;;;;;;57.07;35.97;;;;;;;9.73;89.47;99143.19;5101384;28;20215;-68
2022/11/05 04:32:59;;;;;;;54.97;35.83;;;;;;;9.72;89.10;99141.56;5094410;28;20679;-68
2022/11/05 04:35:29;;;;;;;55.63;35.50;;;;;;;9.73;89.65;99145.84;5094266;28;20183;-67
2022/11/05 04:37:55;;;;;;;53.57;35.93;;;;;;;9.71;88.84;99163.78;5093937;28;20196;-68
2022/11/05 04:40:22;;;;;;;61.77;35.20;;;;;;;9.72;88.63;99165.44;5094409;28;20196;-68
2022/11/05 04:42:49;;;;;;;59.40;34.83;;;;;;;9.73;88.79;99167.84;5093799;28;20245;-70
2022/11/05 04:45:16;;;;;;;64.07;35.60;;;;;;;9.67;88.25;99173.13;5093933;28;20245;-67
2022/11/05 04:47:43;;;;;;;57.90;36.13;;;;;;;9.69;88.89;99171.91;5093823;28;20191;-68
2022/11/05 04:50:11;;;;;;;54.07;35.20;;;;;;;9.72;87.99;99181.34;5093583;28;20219;-68
2022/11/05 04:52:39;;;;;;;67.60;36.43;;;;;;;9.63;88.23;99166.59;5093728;28;20282;-67
2022/11/05 04:55:07;;;;;;;60.53;34.50;;;;;;;9.61;88.32;99168.63;5093895;28;20228;-68
2022/11/05 04:57:34;;;;;;;62.13;36.23;;;;;;;9.69;89.41;99168.47;5094347;28;20196;-68
2022/11/05 05:00:01;;;;;;;57.93;35.57;;;;;;;9.67;89.58;99179.28;5093819;28;20229;-69
2022/11/05 05:02:28;;;;;;;60.20;36.70;;;;;;;9.76;88.98;99186.03;5093761;28;20584;-67
2022/11/05 05:04:54;;;;;;;57.37;34.80;;;;;;;9.78;88.37;99185.84;5093414;28;20195;-67
2022/11/05 05:07:21;;;;;;;59.30;34.43;;;;;;;9.73;87.95;99189.06;5093456;28;20632;-68
2022/11/05 05:09:49;;;;;;;61.93;33.90;;;;;;;9.70;88.72;99194.78;5093456;28;20227;-67
2022/11/05 05:12:16;;;;;;;59.53;34.77;;;;;;;9.71;88.30;99192.94;5093486;28;20192;-67
2022/11/05 05:14:42;;;;;;;60.17;34.43;;;;;;;9.69;89.06;99197.66;5114158;28;20186;-67
2022/11/05 05:17:09;;;;;;;61.77;33.87;;;;;;;9.72;89.19;99199.91;5097210;28;20752;-68
2022/11/05 05:22:16;;;;;;;54.90;34.73;;;;;;;9.61;90.58;99195.16;5092161;28;20180;-67
2022/11/05 05:24:43;;;;;;;62.33;33.37;;;;;;;9.66;91.35;99198.84;5092706;28;20651;-67
2022/11/05 05:27:11;;;;;;;58.33;34.87;;;;;;;9.68;90.46;99190.72;5092633;28;20663;-67
2022/11/05 05:29:38;;;;;;;58.20;34.57;;;;;;;9.78;90.67;99207.06;5092821;28;20269;-69
2022/11/05 05:32:05;;;;;;;53.90;35.20;;;;;;;9.45;90.40;99155.72;5092313;28;20199;-66
2022/11/05 05:34:32;;;;;;;78.43;45.63;;;;;;;9.75;90.38;99207.44;5092952;28;20337;-66
2022/11/05 05:36:59;;;;;;;62.47;37.87;;;;;;;9.88;91.39;99212.81;5092925;28;20197;-67
2022/11/05 05:39:26;;;;;;;84.90;45.03;;;;;;;10.02;90.57;99199.41;5092457;28;20257;-68
2022/11/05 05:41:53;;;;;;;80.93;46.80;;;;;;;10.21;89.65;99208.47;5092587;28;20278;-68
2022/11/05 05:44:21;;;;;;;70.27;38.63;;;;;;;10.34;87.62;99219.13;5092064;28;20708;-68
2022/11/05 05:46:48;;;;;;;62.70;37.27;;;;;;;10.44;88.94;99215.06;5091664;28;20638;-68
2022/11/05 05:49:15;;;;;;;59.77;38.27;;;;;;;10.56;87.32;99216.09;5092471;28;20195;-68
2022/11/05 05:51:41;;;;;;;61.73;37.03;;;;;;;10.69;87.52;99218.75;5092171;28;20215;-67
2022/11/05 05:54:09;;;;;;;57.77;36.40;;;;;;;10.83;87.06;99203.66;5091759;28;20241;-68
2022/11/05 05:56:36;;;;;;;60.50;36.90;;;;;;;11.10;87.19;99210.56;5092046;28;20613;-68
2022/11/05 05:59:05;;;;;;;57.23;36.63;;;;;;;11.29;85.56;99207.06;5091530;28;20257;-68
2022/11/05 06:01:33;;;;;;;58.00;36.27;;;;;;;11.44;84.80;99218.31;5091979;28;20196;-68
2022/11/05 06:04:00;;;;;;;61.53;37.97;;;;;;;11.46;83.93;99210.91;5092045;28;20258;-68
2022/11/05 06:06:27;;;;;;;61.60;37.67;;;;;;;11.57;83.81;99212.94;5091425;28;20229;-68
2022/11/05 06:08:54;;;;;;;61.60;38.17;;;;;;;11.71;83.93;99214.56;5091668;28;20251;-68
2022/11/05 06:11:21;;;;;;;53.87;34.90;;;;;;;11.98;84.55;99229.41;5091562;28;20277;-68
2022/11/05 06:13:48;;;;;;;53.93;34.70;;;;;;;12.34;82.42;99227.00;5104713;28;20193;-67
2022/11/05 06:16:15;;;;;;;54.27;34.60;;;;;;;12.66;80.67;99225.13;5102813;28;20778;-68
2022/11/05 06:18:43;;;;;;;50.83;32.60;;;;;;;13.02;79.06;99236.78;5094419;28;20179;-68
2022/11/05 06:21:11;;;;;;;86.17;34.43;;;;;;;13.35;78.34;99242.63;5097007;28;20201;-67
2022/11/05 06:23:40;;;;;;;58.03;31.77;;;;;;;13.57;77.26;99246.53;5091503;28;20225;-67
2022/11/05 06:26:12;;;;;;;73.53;32.37;;;;;;;13.75;75.51;99253.72;5093629;28;20187;-68
2022/11/05 06:28:40;;;;;;;50.33;30.70;;;;;;;13.96;73.63;99250.59;5099894;28;20179;-67
2022/11/05 06:31:08;;;;;;;51.23;28.37;;;;;;;14.06;73.36;99251.72;5101809;28;20215;-68
2022/11/05 06:33:35;;;;;;;42.27;30.33;;;;;;;13.98;73.28;99249.38;5099674;28;20236;-67
2022/11/05 06:36:04;;;;;;;43.53;29.53;;;;;;;14.02;74.18;99250.53;5099450;28;20615;-67
2022/11/05 06:38:33;;;;;;;47.63;30.33;;;;;;;14.22;73.67;99256.47;5091971;28;20191;-68
2022/11/05 06:41:00;;;;;;;41.77;27.63;;;;;;;14.61;72.45;99253.28;5093567;28;20195;-66
2022/11/05 06:43:28;;;;;;;58.67;30.43;;;;;;;14.83;70.30;99265.06;5100138;28;20187;-72
2022/11/05 06:45:55;;;;;;;49.17;28.60;;;;;;;15.41;79.19;99247.25;5093037;28;20202;-73
2022/11/05 06:48:21;;;;;;;54.47;30.30;;;;;;;15.68;67.67;99269.84;5091070;28;20191;-70
2022/11/05 06:50:48;;;;;;;29.03;19.00;;;;;;;16.13;75.55;99245.88;5089478;28;20222;-73
2022/11/05 06:53:17;;;;;;;37.63;24.23;;;;;;;17.07;70.25;99258.66;5104085;28;20199;-71
2022/11/05 06:55:46;;;;;;;38.83;28.47;;;;;;;17.65;62.13;99272.50;5087996;28;20245;-70
2022/11/05 06:58:13;;;;;;;49.63;28.73;;;;;;;18.34;60.34;99271.84;5102292;28;20292;-73
2022/11/05 07:00:40;;;;;;;48.10;29.30;;;;;;;18.52;56.50;99279.56;5107923;28;20198;-73
2022/11/05 07:03:09;;;;;;;47.63;27.47;;;;;;;18.54;57.39;99280.94;5084583;28;20629;-74
2022/11/05 07:05:39;;;;;;;40.40;26.77;;;;;;;18.32;57.39;99280.13;5086645;28;20275;-70
2022/11/05 07:08:06;;;;;;;44.20;27.27;;;;;;;18.05;58.39;99279.22;5086043;28;20244;-72
2022/11/05 07:10:34;;;;;;;48.10;28.00;;;;;;;18.05;59.56;99262.31;5088175;28;20296;-67
2022/11/05 07:13:00;;;;;;;42.70;26.30;;;;;;;18.07;58.96;99246.72;5095046;28;20204;-69
2022/11/05 07:15:27;;;;;;;20.00;15.27;;;;;;;18.65;65.02;99252.28;5106841;28;20539;-72
2022/11/05 07:17:58;;;;;;;40.20;24.53;;;;;;;19.22;55.71;99277.56;5091835;28;20227;-65
2022/11/05 07:20:25;;;;;;;38.53;23.07;;;;;;;19.19;55.34;99281.59;5108689;28;20199;-72
2022/11/05 07:22:51;;;;;;;36.80;24.93;;;;;;;19.04;55.72;99268.00;5113301;28;20197;-73
2022/11/05 07:25:18;;;;;;;43.87;25.83;;;;;;;18.91;55.62;99251.47;5111604;28;20674;-68
2022/11/05 07:27:46;;;;;;;37.23;22.80;;;;;;;18.84;58.82;99251.69;5112196;28;20222;-70
2022/11/05 07:30:13;;;;;;;36.73;23.50;;;;;;;19.05;57.93;99252.66;5097764;28;20273;-70
2022/11/05 07:32:40;;;;;;;43.40;23.60;;;;;;;19.31;56.09;99246.44;5092626;28;20195;-70
2022/11/05 07:35:08;;;;;;;35.53;24.57;;;;;;;19.68;54.65;99250.75;5104930;28;20191;-68
2022/11/05 07:37:42;;;;;;;33.80;24.93;;;;;;;19.59;53.80;99238.00;5109210;28;20668;-71
2022/11/05 07:40:11;;;;;;;38.00;23.60;;;;;;;19.93;56.05;99223.13;5109455;28;20585;-69
2022/11/05 07:42:38;;;;;;;43.67;22.97;;;;;;;20.44;54.18;99224.94;5112236;28;20248;-69
2022/11/05 07:45:06;;;;;;;37.73;23.30;;;;;;;20.99;53.24;99227.75;5096278;28;20617;-70
2022/11/05 07:47:33;;;;;;;32.30;23.00;;;;;;;21.27;49.76;99234.53;5092178;28;20548;-71
2022/11/05 07:50:00;;;;;;;36.73;23.63;;;;;;;21.43;50.73;99218.00;5091998;28;20191;-71
2022/11/05 07:52:26;;;;;;;37.13;23.27;;;;;;;21.70;49.06;99220.38;5099639;28;20232;-70
2022/11/05 07:54:53;;;;;;;34.60;23.40;;;;;;;21.81;47.45;99224.72;5112058;28;20191;-73
2022/11/05 07:57:20;;;;;;;27.50;22.57;;;;;;;21.93;48.00;99223.31;5109127;28;20198;-71
2022/11/05 07:59:46;;;;;;;40.80;24.77;;;;;;;22.00;46.28;99215.72;5114017;28;20251;-68
2022/11/05 08:02:15;;;;;;;37.83;25.03;;;;;;;21.70;46.44;99217.69;5115551;28;20627;-70
2022/11/05 08:04:42;;;;;;;36.37;23.57;;;;;;;21.87;48.33;99204.69;5112574;28;20190;-69
2022/11/05 08:07:09;;;;;;;35.37;23.77;;;;;;;22.19;46.64;99214.03;5115324;28;20194;-70
2022/11/05 08:09:35;;;;;;;37.83;23.23;;;;;;;22.59;46.99;99216.56;5116202;28;20199;-70
2022/11/05 08:12:02;;;;;;;43.03;25.17;;;;;;;22.62;44.84;99221.38;5115747;28;20656;-68
2022/11/05 08:14:29;;;;;;;39.13;26.10;;;;;;;21.93;46.39;99214.41;5095147;28;20640;-68
2022/11/05 08:16:57;;;;;;;34.43;21.93;;;;;;;21.46;49.43;99212.06;5094797;28;20261;-68
2022/11/05 08:19:25;;;;;;;31.80;21.80;;;;;;;21.64;51.12;99208.75;5095107;28;20655;-67
2022/11/05 08:21:52;;;;;;;33.53;23.30;;;;;;;21.75;48.99;99207.69;5095070;28;20199;-69
2022/11/05 08:24:18;;;;;;;40.70;25.13;;;;;;;21.78;48.23;99201.75;5094908;28;20199;-68
2022/11/05 08:26:45;;;;;;;39.07;23.33;;;;;;;21.91;48.76;99205.75;5094829;28;20210;-69
2022/11/05 08:29:12;;;;;;;34.30;24.13;;;;;;;22.34;47.29;99211.22;5101689;28;20195;-69
2022/11/05 08:31:38;;;;;;;47.70;27.23;;;;;;;22.47;45.94;99213.38;5115257;28;20277;-73
2022/11/05 08:34:05;;;;;;;37.30;25.47;;;;;;;22.58;45.11;99209.50;5112546;28;20199;-67
2022/11/05 08:36:34;;;;;;;35.70;24.60;;;;;;;22.39;47.14;99216.63;5114712;28;20187;-69
2022/11/05 08:39:01;;;;;;;39.13;25.13;;;;;;;22.56;47.47;99213.56;5114926;28;20186;-70
2022/11/05 08:41:28;;;;;;;40.97;24.37;;;;;;;22.69;45.95;99205.63;5109952;28;20619;-71
2022/11/05 08:43:55;;;;;;;38.77;26.60;;;;;;;23.01;44.82;99213.25;5103407;28;20256;-69
2022/11/05 08:46:22;;;;;;;38.57;25.23;;;;;;;23.26;44.70;99222.03;5094462;28;20227;-68
2022/11/05 08:48:49;;;;;;;36.50;25.50;;;;;;;23.46;42.59;99208.28;5094796;28;20273;-70
2022/11/05 08:51:16;;;;;;;37.93;28.63;;;;;;;23.03;43.36;99201.03;5095842;28;20206;-68
2022/11/05 08:53:44;;;;;;;37.23;25.27;;;;;;;22.87;45.55;99191.41;5112723;28;20186;-68
2022/11/05 08:56:11;;;;;;;41.97;27.23;;;;;;;23.09;44.07;99194.50;5115023;28;20264;-68
2022/11/05 08:58:38;;;;;;;38.17;27.17;;;;;;;23.33;43.43;99195.41;5113643;28;20199;-71
2022/11/05 09:01:05;;;;;;;39.93;27.03;;;;;;;23.35;43.07;99193.19;5113460;28;20195;-70
2022/11/05 09:03:31;;;;;;;38.23;27.87;;;;;;;23.18;41.96;99190.06;5113502;28;20282;-69
2022/11/05 09:05:58;;;;;;;48.00;29.17;;;;;;;22.76;43.48;99186.38;5113026;28;20199;-70
2022/11/05 09:08:25;;;;;;;50.00;29.73;;;;;;;22.75;44.60;99182.06;5113210;28;20612;-70
2022/11/05 09:10:53;;;;;;;70.37;32.00;;;;;;;22.79;44.49;99173.06;5113341;28;20283;-73
2022/11/05 09:13:19;;;;;;;49.73;29.10;;;;;;;22.81;43.96;99176.31;5114408;28;20260;-72
2022/11/05 09:15:46;;;;;;;53.07;30.90;;;;;;;22.85;43.58;99181.97;5109779;28;20244;-70
2022/11/05 09:18:14;;;;;;;41.53;27.17;;;;;;;22.99;44.16;99178.31;5093185;28;20621;-70
2022/11/05 09:20:41;;;;;;;39.07;26.50;;;;;;;23.16;43.07;99180.63;5093607;28;20195;-70
2022/11/05 09:23:08;;;;;;;39.70;27.07;;;;;;;22.96;42.94;99178.09;5093225;28;20245;-70
2022/11/05 09:25:35;;;;;;;42.33;27.27;;;;;;;22.99;43.33;99170.19;5090656;28;20714;-71
2022/11/05 09:28:11;;;;;;;52.30;28.00;;;;;;;23.00;43.29;99179.13;5091706;28;20244;-70
2022/11/05 09:30:42;;;;;;;34.83;25.60;;;;;;;22.98;43.97;99171.28;5091398;28;20631;-70
2022/11/05 09:33:08;;;;;;;40.13;27.70;;;;;;;22.85;43.13;99171.94;5091669;28;20195;-71
2022/11/05 09:35:38;;;;;;;40.83;27.93;;;;;;;22.78;43.55;99157.91;5091620;28;20195;-71
2022/11/05 09:38:05;;;;;;;40.90;28.00;;;;;;;22.44;44.47;99158.94;5091891;28;20624;-70
2022/11/05 09:40:36;;;;;;;36.83;24.97;;;;;;;22.36;45.50;99154.13;5093895;28;20236;-70
2022/11/05 09:43:04;;;;;;;40.93;28.07;;;;;;;22.36;46.10;99160.34;5093941;28;20184;-73
2022/11/05 09:45:35;;;;;;;48.47;29.80;;;;;;;22.58;44.55;99160.75;5094164;28;20199;-71
2022/11/05 09:48:10;;;;;;;38.00;23.93;;;;;;;22.62;44.96;99150.19;5093316;28;20188;-71
2022/11/05 09:50:40;;;;;;;46.00;26.80;;;;;;;22.76;45.46;99138.44;5093388;28;20178;-71
2022/11/05 09:53:07;;;;;;;40.03;26.43;;;;;;;22.76;44.44;99143.03;5093559;28;20278;-71
2022/11/05 09:55:37;;;;;;;35.43;23.63;;;;;;;22.85;45.17;99150.28;5093479;28;20260;-71
2022/11/05 09:58:13;;;;;;;35.37;23.93;;;;;;;22.58;45.94;99144.50;5093767;28;20196;-71
2022/11/05 10:00:42;;;;;;;40.17;25.70;;;;;;;21.87;47.16;99132.47;5093082;28;20241;-71
2022/11/05 10:03:13;;;;;;;41.57;25.97;;;;;;;21.88;48.53;99117.84;5093388;28;20195;-71
2022/11/05 10:05:41;;;;;;;33.53;21.63;;;;;;;22.29;47.68;99115.75;5093033;28;20233;-72
2022/11/05 10:08:15;;;;;;;37.17;25.17;;;;;;;22.40;47.00;99118.09;5092957;28;20265;-71
2022/11/05 10:10:45;;;;;;;32.07;22.80;;;;;;;22.22;48.12;99107.13;5093172;28;20186;-71
2022/11/05 10:13:29;;;;;;;26.00;20.43;;;;;;;22.40;47.87;99114.56;5100875;28;20194;-72
2022/11/05 10:16:02;;;;;;;40.27;24.00;;;;;;;22.54;46.98;99105.56;5107259;28;20183;-72
2022/11/05 10:18:33;;;;;;;42.13;24.50;;;;;;;22.23;47.40;99096.03;5093222;28;20191;-71
2022/11/05 10:21:01;;;;;;;30.53;23.27;;;;;;;22.21;48.06;99100.91;5092566;28;20233;-71
2022/11/05 10:23:28;;;;;;;36.87;23.57;;;;;;;21.87;49.36;99075.69;5092197;28;20210;-71
2022/11/05 10:25:58;;;;;;;33.00;22.63;;;;;;;22.05;49.53;99088.53;5093934;28;20606;-71
2022/11/05 10:28:26;;;;;;;33.80;23.53;;;;;;;21.93;49.30;99096.19;5093076;28;20191;-71
2022/11/05 10:30:58;;;;;;;29.90;23.00;;;;;;;22.13;49.24;99096.06;5092654;28;20226;-71
2022/11/05 10:33:31;;;;;;;36.73;24.37;;;;;;;22.12;49.02;99099.88;5093009;28;20187;-71
2022/11/05 10:36:02;;;;;;;28.40;20.53;;;;;;;22.31;49.19;99092.72;5092562;28;20184;-71
2022/11/05 10:38:29;;;;;;;28.97;23.77;;;;;;;22.53;48.31;99093.13;5092682;28;20191;-71
2022/11/05 10:41:09;;;;;;;38.17;25.33;;;;;;;22.51;47.58;99084.50;5092571;28;20642;-71
2022/11/05 10:43:42;;;;;;;37.77;24.80;;;;;;;22.12;48.76;99086.34;5092212;28;20180;-71
2022/11/05 10:46:28;;;;;;;35.93;24.77;;;;;;;22.22;48.87;99083.56;5093318;28;20339;-71
2022/11/05 10:49:17;;;;;;;34.27;23.97;;;;;;;22.39;48.67;99084.00;5092707;28;20183;-71
2022/11/05 10:51:44;;;;;;;41.60;25.00;;;;;;;22.46;48.50;99081.78;5092740;28;20283;-71
2022/11/05 10:54:17;;;;;;;34.03;22.60;;;;;;;22.48;48.59;99079.63;5092911;28;20599;-71
2022/11/05 10:56:44;;;;;;;37.10;25.07;;;;;;;22.51;48.29;99078.25;5092177;28;20184;-71
2022/11/05 10:59:21;;;;;;;41.13;27.20;;;;;;;22.32;48.57;99074.56;5092019;28;20235;-71
2022/11/05 11:01:55;;;;;;;44.70;24.87;;;;;;;22.33;49.09;99066.16;5092402;28;20183;-71
2022/11/05 11:04:25;;;;;;;36.47;25.33;;;;;;;22.39;48.87;99065.06;5092309;28;20187;-71
2022/11/05 11:06:55;;;;;;;33.63;24.53;;;;;;;22.20;49.39;99063.28;5092083;28;20188;-71
2022/11/05 11:09:25;;;;;;;37.30;22.70;;;;;;;22.12;49.76;99059.28;5092641;28;20191;-71
2022/11/05 11:12:01;;;;;;;34.90;22.07;;;;;;;22.23;49.35;99055.44;5092004;28;20236;-71
2022/11/05 11:14:29;;;;;;;30.73;22.27;;;;;;;22.18;49.45;99052.78;5110994;28;20239;-71
2022/11/05 11:17:16;;;;;;;35.50;22.77;;;;;;;22.03;49.62;99033.94;5097756;28;20222;-71
2022/11/05 11:19:44;;;;;;;29.20;20.93;;;;;;;22.05;50.04;99047.97;5091841;28;20199;-71
2022/11/05 11:22:19;;;;;;;36.20;23.03;;;;;;;22.29;49.59;99040.75;5092719;28;20604;-71
2022/11/05 11:24:48;;;;;;;36.90;24.13;;;;;;;22.42;49.01;99042.81;5092074;28;20190;-71
2022/11/05 11:27:21;;;;;;;35.83;23.93;;;;;;;22.52;48.86;99048.19;5091903;28;20188;-71
2022/11/05 11:29:54;;;;;;;33.50;24.83;;;;;;;22.41;49.13;99033.09;5091748;28;20183;-72
2022/11/05 11:32:22;;;;;;;36.27;26.30;;;;;;;22.52;48.94;99021.13;5092012;28;20211;-71
2022/11/05 11:34:53;;;;;;;39.80;23.13;;;;;;;22.59;48.63;99027.03;5095928;28;20204;-71
2022/11/05 11:37:25;;;;;;;30.70;22.67;;;;;;;22.59;48.16;99021.63;5096620;28;20532;-71
2022/11/05 11:39:55;;;;;;;31.77;21.87;;;;;;;22.42;48.47;99018.47;5095885;28;20179;-71
2022/11/05 11:42:27;;;;;;;28.13;19.10;;;;;;;22.24;49.19;99027.28;5096616;28;20206;-71
2022/11/05 11:44:57;;;;;;;31.37;21.20;;;;;;;22.18;49.21;99031.13;5096056;28;20183;-71
2022/11/05 11:47:28;;;;;;;34.07;21.50;;;;;;;22.04;49.25;99022.00;5095886;28;20195;-71
2022/11/05 11:49:58;;;;;;;32.23;22.57;;;;;;;22.00;49.20;99029.06;5095697;28;20347;-71
2022/11/05 11:52:29;;;;;;;39.00;23.43;;;;;;;21.65;50.43;99010.34;5096472;28;20203;-71
2022/11/05 11:55:20;;;;;;;27.57;21.37;;;;;;;21.80;49.84;99012.97;5095615;28;20591;-71
2022/11/05 11:57:49;;;;;;;31.03;21.10;;;;;;;21.83;49.77;99000.78;5095934;28;20180;-71
2022/11/05 12:00:17;;;;;;;30.00;22.50;;;;;;;21.87;49.92;99002.66;5095518;28;20244;-71
2022/11/05 12:03:12;;;;;;;32.30;23.87;;;;;;;21.92;49.64;99005.31;5096509;28;20245;-71
2022/11/05 12:05:46;;;;;;;33.90;23.47;;;;;;;21.71;49.69;98982.22;5094905;28;20245;-71
2022/11/05 12:08:28;;;;;;;40.43;24.53;;;;;;;21.85;50.17;99002.13;5095716;28;20254;-71
2022/11/05 12:11:03;;;;;;;34.77;25.70;;;;;;;21.52;50.07;99002.84;5095317;28;20680;-73
2022/11/05 12:13:59;;;;;;;34.03;24.93;;;;;;;21.08;51.06;99001.97;5105805;28;20225;-71